SKPE/PEI METAR and TAF weather

Enter ICAO airport designator
Station Type Date Time Source
SKPE METAR 2020/07/11 18:00 UTC NOAA

SKPE 111800Z 21006KT 9999 VCSH SCT014TCU SCT080 22/21 A3009 RMK TCU VCSH E/SE


Station Type Date Time Source
SKPE Decoded METAR 2020/07/11 18:00 UTC NOAA

Pereira / Matecana, Colombia (SKPE) 04-49N 075-44W 1342M
Jul 11, 2020 - 02:00 PM EDT / 2020.07.11 1800 UTC
Wind: from the SSW (210 degrees) at 7 MPH (6 KT):0
Visibility: greater than 7 mile(s):0
Sky conditions: partly cloudy
Weather: showers in the vicinity; Towering cumulus clouds observed
Temperature: 71 F (22 C)
Dew Point: 69 F (21 C)
Relative Humidity: 94%
Pressure (altimeter): 30.09 in. Hg (1018 hPa)
ob: SKPE 111800Z 21006KT 9999 VCSH SCT014TCU SCT080 22/21 A3009 RMK TCU VCSH E/SE
cycle: 18

Station Type Date Time Source
SKPE TAF 2020/07/11 18:33 UTC NOAA

TAF SKPE 111630Z 1118/1218 30006KT 9999 SCT017TCU SCT080
TEMPO 1119/1121 8000 VCSH PROB40
TEMPO 1121/1123 6000 DZRA
BECMG 1123/1201 VRB02KT FEW017 BKN080 PROB40
TEMPO 1205/1209 7000 DZRA
TEMPO 1210/1213 8000 MIFG TX26/1119Z TN18/1210Z

Example: see airport list